Time;durP1;ratioP1;P1;durP2;ratioP2;P2;SDS_P1;SDS_P2;PMS_P1;PMS_P2;Temp;Humidity;BMP_temperature;BMP_pressure;BME280_temperature;BME280_humidity;BME280_pressure;Samples;Min_cycle;Max_cycle;Signal;HPM_P1;HPM_P2
2022/09/17 00:00:50;;;;;;;15.52;13.93;;;10.90;99.90;;;;;;5005622;28;20030;-91
2022/09/17 00:03:17;;;;;;;21.52;15.07;;;10.80;99.90;;;;;;5016997;28;20046;-92
2022/09/17 00:05:43;;;;;;;19.15;14.88;;;10.80;99.90;;;;;;4999677;28;20030;-92
2022/09/17 00:08:11;;;;;;;16.70;14.13;;;10.70;99.90;;;;;;4996717;28;20042;-94
2022/09/17 00:10:40;;;;;;;20.42;14.10;;;10.70;99.90;;;;;;5000706;28;20109;-92
2022/09/17 00:13:07;;;;;;;15.70;13.82;;;10.60;99.90;;;;;;4992084;28;20030;-93
2022/09/17 00:15:39;;;;;;;15.68;12.60;;;10.60;99.90;;;;;;4997432;28;20050;-93
2022/09/17 00:18:05;;;;;;;20.17;13.43;;;10.60;99.90;;;;;;4989021;28;20027;-94
2022/09/17 00:20:31;;;;;;;15.85;11.45;;;10.60;99.90;;;;;;4981793;28;20541;-94
2022/09/17 00:22:57;;;;;;;12.88;11.57;;;10.50;99.90;;;;;;4979555;28;20022;-94
2022/09/17 00:25:23;;;;;;;16.17;11.93;;;10.50;99.90;;;;;;4980816;28;20030;-91
2022/09/17 00:27:49;;;;;;;15.35;12.38;;;10.50;99.90;;;;;;4976385;28;20408;-92
2022/09/17 00:30:14;;;;;;;14.07;9.95;;;10.50;99.90;;;;;;4995514;28;20484;-93
2022/09/17 00:32:40;;;;;;;13.63;11.52;;;10.40;99.90;;;;;;5000215;28;20449;-91
2022/09/17 00:35:07;;;;;;;12.63;11.32;;;10.40;99.90;;;;;;5007459;28;20029;-91
2022/09/17 00:37:33;;;;;;;14.52;10.60;;;10.40;99.90;;;;;;5007947;28;20506;-92
2022/09/17 00:39:59;;;;;;;12.10;10.80;;;10.40;99.90;;;;;;4985923;28;20026;-91
2022/09/17 00:42:24;;;;;;;14.38;10.23;;;10.30;99.90;;;;;;5003996;28;20030;-93
2022/09/17 00:44:54;;;;;;;17.35;11.18;;;10.30;99.90;;;;;;4995140;28;20065;-93
2022/09/17 00:47:23;;;;;;;15.98;11.25;;;10.30;99.90;;;;;;5009951;28;20027;-92
2022/09/17 00:49:54;;;;;;;12.82;11.15;;;10.20;99.90;;;;;;5000072;28;20026;-92
2022/09/17 00:52:26;;;;;;;16.67;10.98;;;10.20;99.90;;;;;;4984335;28;20041;-93
2022/09/17 00:54:57;;;;;;;13.80;11.10;;;10.20;99.90;;;;;;4977373;28;20073;-93
2022/09/17 00:57:23;;;;;;;13.18;11.60;;;10.20;99.90;;;;;;4996663;28;20033;-93
2022/09/17 00:59:50;;;;;;;16.30;11.80;;;10.20;99.90;;;;;;4978122;28;20038;-92
2022/09/17 01:02:16;;;;;;;14.98;11.90;;;10.20;99.90;;;;;;4991541;28;20034;-92
2022/09/17 01:04:42;;;;;;;13.45;11.80;;;10.10;99.90;;;;;;4951488;28;20535;-90
2022/09/17 01:07:31;;;;;;;17.25;13.20;;;10.10;99.90;;;;;;4980603;28;20038;-90
2022/09/17 01:10:17;;;;;;;16.38;12.27;;;10.00;99.90;;;;;;5000561;28;20074;-90
2022/09/17 01:13:06;;;;;;;14.80;10.50;;;10.00;99.90;;;;;;5003398;28;20033;-89
2022/09/17 01:16:04;;;;;;;15.85;11.02;;;10.00;99.90;;;;;;4978162;28;20479;-91
2022/09/17 01:18:45;;;;;;;10.23;9.18;;;10.00;99.90;;;;;;4932064;28;20071;-90
2022/09/17 01:21:39;;;;;;;14.00;10.98;;;9.90;99.90;;;;;;5008947;28;20037;-91
2022/09/17 01:24:35;;;;;;;11.98;9.50;;;9.90;99.90;;;;;;4987468;28;20026;-91
2022/09/17 01:27:46;;;;;;;13.27;10.13;;;9.90;99.90;;;;;;5029598;28;20070;-91
2022/09/17 01:30:32;;;;;;;14.00;9.65;;;9.80;99.90;;;;;;5004102;28;20033;-91
2022/09/17 01:33:02;;;;;;;11.50;8.93;;;9.80;99.90;;;;;;5012838;28;20022;-90
2022/09/17 01:35:46;;;;;;;9.98;8.88;;;9.80;99.90;;;;;;5008352;28;20030;-91
2022/09/17 01:38:53;;;;;;;12.07;10.40;;;9.80;99.90;;;;;;5017545;28;20034;-91
2022/09/17 01:41:32;;;;;;;11.68;9.77;;;9.80;99.90;;;;;;4999298;28;20037;-90
2022/09/17 01:44:09;;;;;;;12.68;8.90;;;9.80;99.90;;;;;;5020753;28;20053;-90
2022/09/17 01:46:54;;;;;;;10.20;8.43;;;9.80;99.90;;;;;;5009064;28;20033;-91
2022/09/17 01:49:21;;;;;;;10.82;9.05;;;9.70;99.90;;;;;;5005798;28;20029;-92
2022/09/17 01:51:48;;;;;;;9.95;7.75;;;9.70;99.90;;;;;;5009573;28;20026;-91
2022/09/17 01:54:36;;;;;;;10.65;9.00;;;9.70;99.90;;;;;;5018078;28;20058;-91
2022/09/17 01:57:13;;;;;;;10.27;9.05;;;9.70;99.90;;;;;;5004226;28;20184;-93
2022/09/17 02:00:14;;;;;;;10.30;8.02;;;9.70;99.90;;;;;;5018855;28;20026;-90
2022/09/17 02:03:04;;;;;;;9.32;8.25;;;9.70;99.90;;;;;;4992502;28;20034;-93
2022/09/17 02:05:34;;;;;;;8.15;6.85;;;9.70;99.90;;;;;;5026404;28;20107;-91
2022/09/17 02:08:20;;;;;;;11.07;7.75;;;9.60;99.90;;;;;;5019920;28;20092;-90
2022/09/17 02:10:56;;;;;;;12.20;8.18;;;9.60;99.90;;;;;;5017539;28;20037;-89
2022/09/17 02:13:46;;;;;;;10.13;7.03;;;9.60;99.90;;;;;;5038687;28;20026;-91
2022/09/17 02:16:16;;;;;;;8.80;7.85;;;9.60;99.90;;;;;;5019305;28;20010;-90
2022/09/17 02:18:50;;;;;;;11.98;7.50;;;9.60;99.90;;;;;;5036993;28;20077;-90
2022/09/17 02:21:37;;;;;;;11.65;7.18;;;9.50;99.90;;;;;;5006698;28;20022;-90
2022/09/17 02:24:25;;;;;;;11.13;7.25;;;9.50;99.90;;;;;;5026260;28;20395;-91
2022/09/17 02:27:04;;;;;;;11.75;7.32;;;9.50;99.90;;;;;;5018575;28;20136;-91
2022/09/17 02:29:40;;;;;;;9.77;6.32;;;9.40;99.90;;;;;;5012376;28;20029;-92
2022/09/17 02:32:07;;;;;;;7.68;5.68;;;9.40;99.90;;;;;;5003539;28;20037;-91
2022/09/17 02:34:33;;;;;;;7.68;6.60;;;9.40;99.90;;;;;;5019678;28;20022;-91
2022/09/17 02:36:59;;;;;;;9.90;6.22;;;9.40;99.90;;;;;;4994025;28;20383;-90
2022/09/17 02:39:26;;;;;;;8.90;6.13;;;9.40;99.90;;;;;;5007443;28;20026;-92
2022/09/17 02:42:10;;;;;;;11.15;6.28;;;9.40;99.90;;;;;;5000922;28;20057;-92
2022/09/17 02:45:11;;;;;;;9.68;6.88;;;9.30;99.90;;;;;;5005759;28;20086;-92
2022/09/17 02:47:57;;;;;;;7.13;6.15;;;9.30;99.90;;;;;;4997611;28;20097;-91
2022/09/17 02:50:41;;;;;;;10.50;6.88;;;9.30;99.90;;;;;;5018383;28;20030;-93
2022/09/17 02:53:27;;;;;;;9.02;5.80;;;9.30;99.90;;;;;;4986839;28;20022;-93
2022/09/17 02:56:05;;;;;;;7.90;5.63;;;9.30;99.90;;;;;;4997859;28;20102;-91
2022/09/17 02:58:35;;;;;;;11.80;6.18;;;9.30;99.90;;;;;;5000606;28;20022;-91
2022/09/17 03:01:06;;;;;;;8.05;6.22;;;9.30;99.90;;;;;;5029818;28;20017;-94
2022/09/17 03:03:44;;;;;;;10.43;7.18;;;9.30;99.90;;;;;;5026728;28;20352;-92
2022/09/17 03:06:12;;;;;;;6.93;5.97;;;9.30;99.90;;;;;;5016111;28;20124;-92
2022/09/17 03:08:41;;;;;;;6.95;5.93;;;9.20;99.90;;;;;;5010547;28;20127;-92
2022/09/17 03:11:09;;;;;;;8.60;5.20;;;9.20;99.90;;;;;;5009550;28;20050;-89
2022/09/17 03:13:35;;;;;;;;;;;9.20;99.90;;;;;;5032425;28;20026;-88
2022/09/17 03:16:02;;;;;;;11.38;6.43;;;9.20;99.90;;;;;;5014728;28;19905;-88
2022/09/17 03:18:28;;;;;;;12.57;6.55;;;9.20;99.90;;;;;;5013212;28;20529;-89
2022/09/17 03:20:54;;;;;;;7.72;6.10;;;9.20;99.90;;;;;;4997275;28;20109;-87
2022/09/17 03:23:20;;;;;;;7.03;5.93;;;9.20;99.90;;;;;;5017114;28;20038;-90
2022/09/17 03:25:48;;;;;;;10.30;6.32;;;9.20;99.90;;;;;;5007523;28;20049;-91
2022/09/17 03:28:15;;;;;;;10.60;6.15;;;9.20;99.90;;;;;;5024323;28;20054;-89
2022/09/17 03:30:43;;;;;;;10.23;5.87;;;9.30;99.90;;;;;;5013112;28;20022;-90
2022/09/17 03:33:08;;;;;;;7.13;5.18;;;9.30;99.90;;;;;;5017837;28;20018;-91
2022/09/17 03:35:34;;;;;;;6.57;5.55;;;9.30;99.90;;;;;;5016348;28;20030;-88
2022/09/17 03:38:00;;;;;;;7.40;5.72;;;9.40;99.90;;;;;;5008773;28;20081;-88
2022/09/17 03:40:26;;;;;;;8.98;5.35;;;9.40;99.90;;;;;;5001525;28;20038;-89
2022/09/17 03:42:52;;;;;;;11.70;6.00;;;9.50;99.90;;;;;;4982916;28;20054;-89
2022/09/17 03:45:18;;;;;;;7.38;5.53;;;9.50;99.90;;;;;;5016461;28;20018;-91
2022/09/17 03:47:44;;;;;;;7.32;5.82;;;9.50;99.90;;;;;;5016107;28;20038;-91
2022/09/17 03:50:10;;;;;;;7.13;5.78;;;9.50;99.90;;;;;;5010322;28;20376;-90
2022/09/17 03:52:36;;;;;;;5.78;5.18;;;9.60;99.90;;;;;;4997870;28;20130;-90
2022/09/17 03:55:02;;;;;;;13.48;6.07;;;9.70;99.90;;;;;;5010883;28;19998;-91
2022/09/17 03:57:28;;;;;;;10.30;5.22;;;9.70;99.90;;;;;;5021442;28;20032;-91
2022/09/17 03:59:54;;;;;;;6.25;5.55;;;9.70;99.90;;;;;;4997167;28;20460;-90
2022/09/17 04:02:20;;;;;;;10.65;5.55;;;9.70;99.90;;;;;;5013557;28;20018;-92
2022/09/17 04:04:46;;;;;;;9.95;5.13;;;9.80;99.90;;;;;;5024925;28;20037;-89
2022/09/17 04:07:11;;;;;;;7.72;5.22;;;9.80;99.90;;;;;;5009419;28;20085;-89
2022/09/17 04:09:37;;;;;;;7.88;5.25;;;10.00;99.90;;;;;;5003937;28;20033;-91
2022/09/17 04:12:03;;;;;;;5.63;4.57;;;10.30;99.90;;;;;;5000232;28;20058;-94
2022/09/17 04:14:29;;;;;;;7.75;4.30;;;10.60;99.90;;;;;;4991757;28;20029;-91
2022/09/17 04:16:57;;;;;;;7.93;5.05;;;10.80;99.90;;;;;;5003739;28;20053;-92
2022/09/17 04:19:23;;;;;;;;;;;11.10;99.90;;;;;;5019919;28;20050;-92
2022/09/17 04:21:49;;;;;;;8.05;4.60;;;11.30;99.90;;;;;;5018396;28;19973;-93
2022/09/17 04:24:15;;;;;;;5.47;4.78;;;11.40;99.90;;;;;;4996455;28;20506;-93
2022/09/17 04:26:41;;;;;;;12.35;5.65;;;11.30;99.90;;;;;;5007078;28;20014;-92
2022/09/17 04:29:08;;;;;;;10.25;4.88;;;11.00;99.90;;;;;;5006639;28;20050;-91
2022/09/17 04:31:34;;;;;;;;;;;10.80;99.90;;;;;;5010775;28;20030;-92
2022/09/17 04:34:00;;;;;;;6.07;5.38;;;10.70;99.90;;;;;;5002744;28;19905;-90
2022/09/17 04:36:26;;;;;;;6.28;5.18;;;10.50;99.90;;;;;;5010989;28;20031;-91
2022/09/17 04:38:52;;;;;;;6.03;4.75;;;10.40;99.90;;;;;;4994102;28;20117;-92
2022/09/17 04:41:18;;;;;;;11.95;6.03;;;10.30;99.90;;;;;;5023722;28;20074;-91
2022/09/17 04:43:44;;;;;;;5.28;4.78;;;10.30;99.90;;;;;;5013046;28;20102;-91
2022/09/17 04:46:10;;;;;;;5.07;4.35;;;10.30;99.90;;;;;;5029247;28;20052;-92
2022/09/17 04:48:36;;;;;;;6.80;4.47;;;10.50;99.90;;;;;;5000352;28;20038;-89
2022/09/17 04:51:02;;;;;;;7.57;4.82;;;10.50;99.90;;;;;;5017017;28;20044;-91
2022/09/17 04:53:28;;;;;;;12.30;5.13;;;10.50;99.90;;;;;;5019802;28;20036;-91
2022/09/17 04:55:54;;;;;;;6.10;4.78;;;10.50;99.90;;;;;;5028565;28;20038;-89
2022/09/17 04:58:20;;;;;;;6.53;4.40;;;10.50;99.90;;;;;;5038019;28;20018;-91
2022/09/17 05:00:46;;;;;;;9.25;5.80;;;10.50;99.90;;;;;;5024453;28;20028;-90
2022/09/17 05:03:12;;;;;;;6.63;5.18;;;10.50;99.90;;;;;;5016642;28;20036;-91
2022/09/17 05:05:38;;;;;;;11.82;4.60;;;10.50;99.90;;;;;;5015854;28;20057;-90
2022/09/17 05:08:03;;;;;;;4.97;4.25;;;10.50;99.90;;;;;;5017176;28;20551;-90
2022/09/17 05:10:29;;;;;;;6.75;4.75;;;10.50;99.90;;;;;;5016533;28;20029;-90
2022/09/17 05:12:55;;;;;;;6.18;4.85;;;10.50;99.90;;;;;;5017218;28;20046;-90
2022/09/17 05:15:23;;;;;;;6.32;4.30;;;10.60;99.90;;;;;;5016146;28;20092;-91
2022/09/17 05:17:49;;;;;;;;;;;10.70;99.90;;;;;;5018870;28;20510;-93
2022/09/17 05:20:15;;;;;;;8.88;5.30;;;10.70;99.90;;;;;;5005902;28;19921;-89
2022/09/17 05:22:46;;;;;;;4.97;3.90;;;10.70;99.90;;;;;;5006110;28;20033;-89
2022/09/17 05:25:14;;;;;;;6.60;4.40;;;10.70;99.90;;;;;;5003090;28;20033;-90
2022/09/17 05:27:40;;;;;;;6.95;4.72;;;10.70;99.90;;;;;;5021415;28;20112;-89
2022/09/17 05:30:20;;;;;;;8.18;4.30;;;10.70;99.90;;;;;;5019561;28;20018;-93
2022/09/17 05:32:58;;;;;;;5.38;4.25;;;10.80;99.90;;;;;;5002630;28;20034;-91
2022/09/17 05:35:23;;;;;;;;;;;10.80;99.90;;;;;;5016987;28;20051;-89
2022/09/17 05:37:49;;;;;;;7.35;4.07;;;10.80;99.90;;;;;;5016392;28;19996;-90
2022/09/17 05:40:15;;;;;;;6.22;4.03;;;10.80;99.90;;;;;;4999564;28;20476;-90
2022/09/17 05:42:41;;;;;;;8.38;4.72;;;10.80;99.90;;;;;;5016984;28;20022;-90
2022/09/17 05:45:07;;;;;;;6.68;4.00;;;10.80;99.90;;;;;;5017391;28;20028;-91
2022/09/17 05:47:34;;;;;;;5.70;4.15;;;10.90;99.90;;;;;;5017229;28;20036;-91
2022/09/17 05:50:00;;;;;;;6.47;4.43;;;10.90;99.90;;;;;;5016058;28;20017;-90
2022/09/17 05:52:27;;;;;;;4.53;3.60;;;11.00;99.90;;;;;;5016300;28;20056;-88
2022/09/17 05:54:53;;;;;;;7.00;4.10;;;11.10;99.90;;;;;;4999039;28;20049;-88
2022/09/17 05:57:19;;;;;;;10.15;3.83;;;11.30;99.90;;;;;;5005499;28;20030;-91
2022/09/17 05:59:45;;;;;;;7.90;3.22;;;11.50;99.90;;;;;;5006585;28;20022;-90
2022/09/17 06:02:14;;;;;;;5.68;3.22;;;11.50;99.90;;;;;;5003302;28;20018;-89
2022/09/17 06:04:39;;;;;;;7.93;3.65;;;11.60;99.90;;;;;;5004289;28;20029;-90
2022/09/17 06:07:08;;;;;;;9.60;3.60;;;11.80;99.90;;;;;;5030697;28;20041;-89
2022/09/17 06:09:37;;;;;;;7.45;3.15;;;12.00;99.90;;;;;;5017916;28;20022;-91
2022/09/17 06:12:04;;;;;;;4.28;3.83;;;12.30;99.90;;;;;;5029816;28;20030;-89
2022/09/17 06:14:30;;;;;;;6.60;3.63;;;12.60;99.10;;;;;;5018428;28;20041;-88
2022/09/17 06:16:56;;;;;;;8.75;3.47;;;12.90;98.20;;;;;;5037921;28;20033;-90
2022/09/17 06:19:22;;;;;;;3.33;2.55;;;13.20;97.60;;;;;;5022644;28;20042;-91
2022/09/17 06:21:49;;;;;;;6.50;2.88;;;13.50;95.80;;;;;;5004687;28;20070;-89
2022/09/17 06:24:15;;;;;;;7.75;3.75;;;13.70;94.50;;;;;;5017713;28;20014;-91
2022/09/17 06:26:41;;;;;;;5.68;2.95;;;13.90;93.80;;;;;;5020061;28;20368;-89
2022/09/17 06:29:07;;;;;;;4.07;2.85;;;14.30;93.10;;;;;;5018478;28;20029;-90
2022/09/17 06:31:33;;;;;;;5.22;2.72;;;14.60;91.60;;;;;;4995384;28;20066;-90
2022/09/17 06:33:59;;;;;;;4.38;2.90;;;14.80;90.80;;;;;;5013269;28;20028;-89
2022/09/17 06:36:25;;;;;;;7.40;3.13;;;15.10;90.00;;;;;;5022616;28;20081;-88
2022/09/17 06:38:51;;;;;;;4.85;2.85;;;15.20;87.40;;;;;;5004368;28;20113;-88
2022/09/17 06:41:17;;;;;;;4.25;2.50;;;15.30;86.30;;;;;;5023329;28;20049;-88
2022/09/17 06:43:43;;;;;;;7.32;3.10;;;15.30;85.50;;;;;;5014411;28;20069;-89
2022/09/17 06:46:10;;;;;;;6.68;3.17;;;15.50;85.80;;;;;;5028671;28;20026;-88
2022/09/17 06:48:36;;;;;;;6.07;3.28;;;15.60;84.80;;;;;;5028292;28;20432;-90
2022/09/17 06:51:05;;;;;;;5.60;2.60;;;15.70;83.70;;;;;;5031388;28;20037;-89
2022/09/17 06:53:32;;;;;;;7.55;3.83;;;15.70;82.70;;;;;;5020501;28;20029;-89
2022/09/17 06:55:59;;;;;;;8.38;2.97;;;15.70;82.90;;;;;;5017677;28;20034;-90
2022/09/17 06:58:25;;;;;;;7.78;3.45;;;15.90;82.00;;;;;;4999061;28;20529;-91
2022/09/17 07:00:51;;;;;;;11.98;3.72;;;16.00;82.50;;;;;;5016507;28;20029;-91
2022/09/17 07:03:18;;;;;;;5.68;2.85;;;16.40;80.40;;;;;;4998202;28;20025;-90
2022/09/17 07:05:44;;;;;;;6.53;3.42;;;16.40;78.40;;;;;;4999460;28;20064;-90
2022/09/17 07:08:10;;;;;;;6.65;3.22;;;16.60;78.60;;;;;;5016491;28;20361;-90
2022/09/17 07:10:36;;;;;;;9.18;3.58;;;17.00;78.40;;;;;;5016577;28;20026;-91
2022/09/17 07:13:05;;;;;;;7.07;2.90;;;17.40;76.50;;;;;;4997547;28;20025;-91
2022/09/17 07:15:31;;;;;;;7.15;2.92;;;17.60;74.60;;;;;;5016457;28;20555;-90
2022/09/17 07:17:57;;;;;;;6.95;2.55;;;17.60;72.10;;;;;;4998268;28;20057;-89
2022/09/17 07:20:24;;;;;;;6.05;3.28;;;17.40;70.70;;;;;;4998044;28;20030;-92
2022/09/17 07:22:57;;;;;;;4.63;3.03;;;17.50;71.50;;;;;;4994824;28;20076;-87
2022/09/17 07:25:25;;;;;;;8.48;2.60;;;17.70;70.30;;;;;;5016271;28;20041;-89
2022/09/17 07:27:51;;;;;;;6.07;2.85;;;17.70;69.70;;;;;;5017351;28;20057;-89
2022/09/17 07:30:18;;;;;;;4.15;2.10;;;17.60;68.90;;;;;;5001846;28;20079;-90
2022/09/17 07:32:44;;;;;;;10.40;2.90;;;17.40;70.60;;;;;;5018194;28;20030;-91
2022/09/17 07:35:10;;;;;;;7.38;3.30;;;17.20;70.30;;;;;;5020202;28;20022;-91
2022/09/17 07:37:36;;;;;;;4.05;2.40;;;17.30;70.50;;;;;;5013509;28;20041;-89
2022/09/17 07:40:04;;;;;;;9.57;3.53;;;17.50;69.60;;;;;;5033748;28;20006;-88
2022/09/17 07:42:31;;;;;;;8.25;3.13;;;17.70;69.00;;;;;;5034807;28;20022;-88
2022/09/17 07:44:57;;;;;;;8.45;2.55;;;17.70;69.50;;;;;;5029518;28;20013;-88
2022/09/17 07:47:23;;;;;;;9.05;2.17;;;17.70;68.40;;;;;;5031647;28;20049;-88
2022/09/17 07:49:55;;;;;;;7.78;2.50;;;17.90;66.70;;;;;;5006418;28;20475;-88
2022/09/17 07:52:21;;;;;;;5.38;3.05;;;18.10;67.50;;;;;;5029047;28;20037;-93
2022/09/17 07:54:47;;;;;;;9.80;2.58;;;18.30;66.10;;;;;;5028736;28;20026;-90
2022/09/17 07:57:13;;;;;;;11.75;2.85;;;18.30;65.30;;;;;;5002466;28;20037;-90
2022/09/17 07:59:39;;;;;;;6.03;2.70;;;18.60;64.90;;;;;;5021610;28;20049;-89
2022/09/17 08:02:12;;;;;;;9.10;2.53;;;18.80;63.10;;;;;;4992587;28;20026;-91
2022/09/17 08:04:37;;;;;;;7.03;2.63;;;19.20;62.70;;;;;;5028909;28;20372;-89
2022/09/17 08:07:05;;;;;;;5.63;2.35;;;20.00;61.60;;;;;;5029386;28;20030;-89
2022/09/17 08:09:31;;;;;;;9.27;2.65;;;20.80;60.30;;;;;;5026213;28;20384;-90
2022/09/17 08:11:57;;;;;;;5.22;3.00;;;21.60;57.20;;;;;;5019445;28;20030;-87
2022/09/17 08:14:24;;;;;;;8.50;2.92;;;22.10;56.60;;;;;;5019806;28;20105;-90
2022/09/17 08:16:50;;;;;;;6.32;2.67;;;22.70;55.70;;;;;;5018525;28;20030;-92
2022/09/17 08:19:17;;;;;;;7.45;2.58;;;24.50;54.90;;;;;;5019482;28;20038;-89
2022/09/17 08:21:43;;;;;;;6.22;2.58;;;24.60;50.80;;;;;;5024636;28;20081;-92
2022/09/17 08:24:09;;;;;;;3.75;2.45;;;25.90;47.20;;;;;;5029516;28;20025;-92
2022/09/17 08:26:35;;;;;;;5.47;2.00;;;26.80;45.80;;;;;;5021855;28;20039;-90
2022/09/17 08:29:01;;;;;;;4.90;2.72;;;27.60;43.70;;;;;;5024877;28;20018;-89
2022/09/17 08:31:28;;;;;;;5.38;2.53;;;28.00;42.80;;;;;;5034037;28;20037;-91
2022/09/17 08:33:54;;;;;;;7.85;2.75;;;29.10;41.10;;;;;;5012486;28;20479;-94
2022/09/17 08:36:25;;;;;;;5.43;2.15;;;29.50;39.30;;;;;;5001254;28;20169;-87
2022/09/17 08:38:54;;;;;;;4.30;2.00;;;29.30;39.10;;;;;;5017336;28;20380;-89
2022/09/17 08:41:23;;;;;;;3.42;1.85;;;29.00;39.70;;;;;;4999208;28;20164;-88
2022/09/17 08:44:20;;;;;;;4.45;2.20;;;29.40;38.70;;;;;;5017106;28;20036;-89
2022/09/17 08:47:17;;;;;;;2.70;2.00;;;28.70;39.10;;;;;;5010713;28;20038;-88
2022/09/17 08:49:52;;;;;;;4.68;2.17;;;28.70;39.70;;;;;;5023453;28;20114;-90
2022/09/17 08:52:33;;;;;;;6.80;2.05;;;28.80;38.80;;;;;;5026287;28;20586;-92
2022/09/17 08:55:17;;;;;;;5.97;1.77;;;29.20;38.80;;;;;;5018588;28;20048;-91
2022/09/17 08:58:15;;;;;;;6.68;2.40;;;29.50;38.20;;;;;;5041245;28;20022;-91
2022/09/17 09:00:52;;;;;;;5.53;1.83;;;30.60;38.10;;;;;;5036204;28;20491;-90
2022/09/17 09:03:31;;;;;;;5.45;2.00;;;31.10;36.00;;;;;;5004336;28;20040;-92
2022/09/17 09:05:59;;;;;;;5.25;2.10;;;29.90;36.10;;;;;;5021961;28;20029;-89
2022/09/17 09:08:34;;;;;;;6.70;2.33;;;29.20;36.50;;;;;;5002303;28;20446;-89
2022/09/17 09:11:14;;;;;;;6.50;2.00;;;29.20;37.30;;;;;;5018818;28;20018;-89
2022/09/17 09:13:53;;;;;;;9.30;2.10;;;29.70;36.40;;;;;;5036699;28;20070;-91
2022/09/17 09:16:25;;;;;;;3.95;1.60;;;29.90;35.10;;;;;;5026106;28;20026;-90
2022/09/17 09:18:58;;;;;;;4.93;1.63;;;28.60;35.70;;;;;;5004814;28;20034;-89
2022/09/17 09:21:29;;;;;;;5.03;1.95;;;28.20;36.80;;;;;;5015797;28;20025;-88
2022/09/17 09:24:05;;;;;;;5.47;2.33;;;28.10;36.40;;;;;;5001755;28;20036;-90
2022/09/17 09:26:58;;;;;;;7.97;2.30;;;26.80;36.70;;;;;;5025687;28;20022;-94
2022/09/17 09:29:42;;;;;;;5.32;1.90;;;25.60;39.20;;;;;;5033933;28;20029;-91
2022/09/17 09:32:14;;;;;;;7.30;2.65;;;24.50;39.90;;;;;;5033071;28;20038;-92
2022/09/17 09:34:40;;;;;;;6.75;1.85;;;24.70;41.60;;;;;;5016413;28;20026;-95
2022/09/17 09:37:30;;;;;;;7.63;2.00;;;25.20;40.40;;;;;;5003085;28;20486;-88
2022/09/17 09:40:06;;;;;;;6.13;1.70;;;24.80;40.00;;;;;;5010797;28;20039;-91
2022/09/17 09:42:34;;;;;;;4.60;1.75;;;;;;;;;;5004238;28;20029;-94
2022/09/17 09:45:06;;;;;;;4.88;1.70;;;24.00;41.10;;;;;;5008414;28;20545;-93
2022/09/17 09:47:50;;;;;;;4.55;1.67;;;23.60;41.30;;;;;;5007654;28;20038;-92
2022/09/17 09:50:45;;;;;;;3.55;1.75;;;22.40;42.60;;;;;;5003736;28;20022;-93
2022/09/17 09:54:12;;;;;;;4.97;1.90;;;22.10;44.60;;;;;;4988684;28;20026;-92
2022/09/17 09:57:16;;;;;;;7.72;1.83;;;22.40;43.60;;;;;;4955186;29;20095;-89
2022/09/17 09:59:42;;;;;;;6.43;1.83;;;22.60;44.00;;;;;;4999048;28;20025;-93
2022/09/17 10:02:09;;;;;;;5.50;1.80;;;22.80;42.30;;;;;;5035468;28;20022;-93
2022/09/17 10:04:35;;;;;;;5.95;1.70;;;22.40;43.40;;;;;;5030820;28;20034;-93
2022/09/17 10:07:06;;;;;;;7.38;2.20;;;23.40;43.00;;;;;;5027466;28;20052;-91
2022/09/17 10:09:35;;;;;;;7.47;1.95;;;24.60;41.50;;;;;;5006300;28;20439;-92
2022/09/17 10:12:03;;;;;;;3.33;1.50;;;24.60;40.00;;;;;;5003066;28;20391;-89
2022/09/17 10:14:39;;;;;;;3.95;1.48;;;23.30;41.10;;;;;;5025573;28;20037;-87
2022/09/17 10:17:21;;;;;;;5.03;1.83;;;22.10;41.50;;;;;;5021635;28;20026;-92
2022/09/17 10:19:59;;;;;;;2.10;1.35;;;21.30;43.40;;;;;;5014401;28;20442;-84
2022/09/17 10:22:32;;;;;;;3.80;1.50;;;20.90;44.40;;;;;;5013817;28;20037;-89
2022/09/17 10:24:59;;;;;;;3.85;1.95;;;20.60;45.00;;;;;;5003363;28;20018;-89
2022/09/17 10:27:26;;;;;;;11.20;2.42;;;20.10;45.60;;;;;;5002974;28;20057;-90
2022/09/17 10:30:08;;;;;;;4.75;2.45;;;19.80;46.60;;;;;;5029044;28;20029;-89
2022/09/17 10:32:34;;;;;;;6.22;1.90;;;19.70;47.30;;;;;;5035258;28;20021;-88
2022/09/17 10:35:03;;;;;;;5.07;2.17;;;19.70;46.90;;;;;;5025214;28;20025;-88
2022/09/17 10:37:44;;;;;;;6.10;1.90;;;19.40;46.90;;;;;;5015555;28;20026;-88
2022/09/17 10:40:17;;;;;;;7.30;1.70;;;19.10;47.50;;;;;;5009367;28;20061;-88
2022/09/17 10:43:13;;;;;;;7.32;2.33;;;19.00;48.00;;;;;;5009354;28;20061;-90
2022/09/17 10:45:43;;;;;;;2.70;1.42;;;19.10;48.00;;;;;;5023261;28;20022;-91
2022/09/17 10:48:19;;;;;;;5.70;1.90;;;18.90;47.60;;;;;;5024859;28;20030;-89
2022/09/17 10:50:54;;;;;;;4.32;1.85;;;18.80;48.70;;;;;;5028011;28;20026;-90
2022/09/17 10:53:24;;;;;;;5.05;2.35;;;18.80;49.30;;;;;;4998636;28;20030;-89
2022/09/17 10:55:59;;;;;;;6.40;2.47;;;18.60;50.30;;;;;;5016283;28;20082;-88
2022/09/17 10:58:46;;;;;;;3.13;1.35;;;18.50;50.20;;;;;;5015810;28;20018;-88
2022/09/17 11:01:39;;;;;;;4.50;1.70;;;18.10;50.50;;;;;;5018127;28;20081;-89
2022/09/17 11:04:27;;;;;;;7.47;1.55;;;17.70;52.60;;;;;;5001327;28;20034;-87
2022/09/17 11:07:12;;;;;;;4.47;1.85;;;17.70;54.40;;;;;;5007220;28;20040;-89
2022/09/17 11:10:00;;;;;;;8.63;2.38;;;17.70;54.20;;;;;;5000549;28;20058;-89
2022/09/17 11:12:31;;;;;;;5.57;1.58;;;17.40;54.60;;;;;;5028624;28;20037;-93
2022/09/17 11:15:08;;;;;;;3.53;1.42;;;17.20;54.80;;;;;;5017491;28;20057;-89
2022/09/17 11:17:49;;;;;;;6.05;1.65;;;17.10;55.50;;;;;;5031034;28;20025;-86
2022/09/17 11:20:47;;;;;;;6.65;1.90;;;17.10;56.10;;;;;;5023314;28;20053;-85
2022/09/17 11:23:51;;;;;;;5.65;2.53;;;17.10;56.40;;;;;;5000521;28;20042;-87
2022/09/17 11:27:02;;;;;;;6.78;2.40;;;17.20;57.20;;;;;;5015587;28;20045;-85
2022/09/17 11:29:37;;;;;;;7.00;2.28;;;17.20;58.10;;;;;;5019206;28;20018;-85
2022/09/17 11:32:18;;;;;;;4.53;2.35;;;17.10;59.50;;;;;;5015166;28;20507;-86
2022/09/17 11:35:01;;;;;;;4.70;2.17;;;17.20;59.10;;;;;;5015873;28;20025;-85
2022/09/17 11:38:03;;;;;;;3.80;2.50;;;17.40;59.10;;;;;;5016158;28;20025;-83
2022/09/17 11:40:43;;;;;;;4.03;1.90;;;17.50;58.30;;;;;;4998706;28;20053;-84
2022/09/17 11:43:27;;;;;;;3.75;1.60;;;17.30;57.10;;;;;;5021179;28;20018;-84
2022/09/17 11:46:01;;;;;;;3.60;2.05;;;17.10;57.60;;;;;;5014656;28;20022;-84
2022/09/17 11:48:45;;;;;;;8.70;2.40;;;17.10;57.90;;;;;;5013627;28;20034;-85
2022/09/17 11:51:23;;;;;;;4.88;2.38;;;17.30;57.80;;;;;;5014687;28;20120;-84
2022/09/17 11:53:58;;;;;;;6.80;2.72;;;17.30;56.90;;;;;;5014569;28;20041;-84
2022/09/17 11:56:37;;;;;;;5.60;2.30;;;17.40;57.00;;;;;;5014474;28;20022;-84
2022/09/17 11:59:03;;;;;;;4.35;2.20;;;17.60;55.90;;;;;;5018382;28;20022;-84
2022/09/17 12:01:46;;;;;;;5.22;2.60;;;17.70;54.70;;;;;;5029103;28;20033;-88
2022/09/17 12:04:36;;;;;;;5.07;2.60;;;17.70;54.50;;;;;;5013852;28;20033;-86
2022/09/17 12:07:07;;;;;;;5.03;2.28;;;17.80;54.50;;;;;;5026614;28;20045;-84
2022/09/17 12:09:38;;;;;;;7.55;2.75;;;17.90;54.30;;;;;;5018443;28;20033;-88
2022/09/17 12:12:13;;;;;;;5.82;1.67;;;18.00;54.70;;;;;;4996519;28;20026;-83
2022/09/17 12:15:18;;;;;;;5.55;1.90;;;18.00;53.90;;;;;;5017195;28;20022;-83
2022/09/17 12:17:57;;;;;;;4.03;1.92;;;18.00;53.70;;;;;;4964345;28;20116;-83
2022/09/17 12:20:32;;;;;;;4.72;2.35;;;18.00;54.00;;;;;;5015736;28;20085;-82
2022/09/17 12:23:03;;;;;;;6.78;2.17;;;17.90;54.20;;;;;;5017489;28;20010;-82
2022/09/17 12:25:36;;;;;;;10.95;2.55;;;17.80;54.10;;;;;;5012522;28;20040;-81
2022/09/17 12:28:15;;;;;;;4.60;1.85;;;17.60;54.70;;;;;;5012256;28;20084;-81
2022/09/17 12:30:54;;;;;;;4.75;2.58;;;17.50;54.40;;;;;;5012333;28;20030;-84
2022/09/17 12:33:34;;;;;;;4.28;1.50;;;17.40;54.50;;;;;;5011524;28;20022;-82
2022/09/17 12:36:24;;;;;;;4.03;1.73;;;17.40;54.70;;;;;;5014125;28;20029;-85
2022/09/17 12:39:29;;;;;;;3.30;1.75;;;17.40;55.00;;;;;;5004211;28;20022;-84
2022/09/17 12:42:04;;;;;;;2.88;1.67;;;17.60;54.90;;;;;;5013878;28;20439;-85
2022/09/17 12:44:39;;;;;;;6.53;2.42;;;17.80;54.50;;;;;;5012635;28;20056;-87
2022/09/17 12:47:40;;;;;;;7.38;1.90;;;17.80;54.20;;;;;;5001516;28;20029;-86
2022/09/17 12:50:14;;;;;;;5.03;1.88;;;17.50;54.30;;;;;;4997226;28;20025;-87
2022/09/17 12:53:04;;;;;;;3.65;1.65;;;17.30;55.40;;;;;;5016306;28;20427;-87
2022/09/17 12:55:35;;;;;;;5.28;1.75;;;17.30;55.60;;;;;;5000911;28;20545;-87
2022/09/17 12:58:15;;;;;;;7.82;2.88;;;17.50;55.40;;;;;;4999325;28;20021;-85
2022/09/17 13:00:49;;;;;;;6.07;2.58;;;17.60;55.60;;;;;;5013850;28;20042;-86
2022/09/17 13:03:31;;;;;;;4.85;2.13;;;17.70;55.90;;;;;;5015466;28;20025;-87
2022/09/17 13:06:09;;;;;;;6.20;2.17;;;17.80;56.00;;;;;;5019632;28;20026;-91
2022/09/17 13:08:51;;;;;;;9.60;2.40;;;17.90;55.80;;;;;;5019069;28;20033;-87
2022/09/17 13:11:42;;;;;;;4.05;1.77;;;18.00;55.50;;;;;;5023377;28;20089;-89
2022/09/17 13:14:36;;;;;;;5.07;2.00;;;17.90;55.70;;;;;;5017639;28;20022;-89
2022/09/17 13:17:31;;;;;;;5.38;2.20;;;17.90;55.90;;;;;;5010979;28;20032;-89
2022/09/17 13:20:10;;;;;;;8.13;2.17;;;17.70;56.80;;;;;;5024760;28;20088;-88